Time;durP1;ratioP1;P1;durP2;ratioP2;P2;SDS_P1;SDS_P2;PMS_P1;PMS_P2;Temp;Humidity;BMP_temperature;BMP_pressure;BME280_temperature;BME280_humidity;BME280_pressure;Samples;Min_cycle;Max_cycle;Signal;HPM_P1;HPM_P2
2021/05/30 00:01:07;;;;;;;2.97;0.75;;;14.70;60.70;;;;;;5026974;28;20056;-73
2021/05/30 00:03:34;;;;;;;2.20;1.10;;;14.80;61.00;;;;;;5027974;28;20029;-65
2021/05/30 00:06:01;;;;;;;4.63;0.80;;;15.10;60.30;;;;;;5026194;28;20159;-67
2021/05/30 00:08:28;;;;;;;1.80;0.70;;;15.20;60.00;;;;;;5027285;28;20105;-70
2021/05/30 00:10:57;;;;;;;1.52;0.75;;;15.10;60.10;;;;;;5027650;28;20068;-67
2021/05/30 00:13:24;;;;;;;2.83;0.70;;;15.20;60.20;;;;;;5028065;28;20030;-67
2021/05/30 00:15:51;;;;;;;2.35;0.70;;;15.20;59.70;;;;;;5028711;28;20716;-64
2021/05/30 00:18:17;;;;;;;3.10;0.80;;;15.20;60.10;;;;;;5027377;28;20409;-70
2021/05/30 00:20:44;;;;;;;4.57;0.80;;;15.30;61.10;;;;;;5027276;28;20064;-70
2021/05/30 00:23:11;;;;;;;2.92;0.77;;;15.20;60.00;;;;;;5034497;28;20036;-70
2021/05/30 00:25:38;;;;;;;1.30;0.70;;;15.20;60.60;;;;;;5027924;28;20025;-69
2021/05/30 00:28:05;;;;;;;3.60;1.00;;;15.10;60.40;;;;;;5034771;28;20029;-64
2021/05/30 00:30:33;;;;;;;4.07;0.77;;;15.20;60.70;;;;;;5027273;28;20053;-69
2021/05/30 00:33:00;;;;;;;1.90;0.60;;;15.30;61.20;;;;;;5026692;28;20037;-65
2021/05/30 00:35:27;;;;;;;1.58;0.60;;;15.20;60.60;;;;;;5026283;28;20018;-74
2021/05/30 00:37:54;;;;;;;3.28;0.80;;;15.10;61.00;;;;;;5027620;28;20029;-72
2021/05/30 00:40:22;;;;;;;0.88;0.40;;;15.00;61.30;;;;;;5025310;28;20037;-64
2021/05/30 00:42:49;;;;;;;2.33;0.60;;;15.10;61.50;;;;;;5030405;28;20025;-71
2021/05/30 00:45:16;;;;;;;4.47;0.95;;;15.20;62.80;;;;;;5028199;28;20061;-66
2021/05/30 00:47:43;;;;;;;1.83;0.57;;;15.30;61.30;;;;;;5027780;28;20017;-68
2021/05/30 00:50:11;;;;;;;2.85;1.00;;;15.40;60.70;;;;;;5026263;28;20025;-64
2021/05/30 00:52:41;;;;;;;3.70;0.98;;;15.60;61.00;;;;;;5026415;28;20132;-69
2021/05/30 00:55:11;;;;;;;2.60;0.50;;;15.70;59.80;;;;;;5019920;28;20398;-71
2021/05/30 00:57:39;;;;;;;2.28;0.60;;;15.80;59.70;;;;;;5037009;28;20083;-71
2021/05/30 01:00:09;;;;;;;1.48;0.60;;;15.90;58.70;;;;;;5027987;28;20033;-74
2021/05/30 01:02:36;;;;;;;3.35;0.95;;;16.00;59.00;;;;;;5034916;28;20037;-67
2021/05/30 01:05:06;;;;;;;1.95;0.60;;;16.00;59.50;;;;;;5085550;23;20057;-67
2021/05/30 01:07:40;;;;;;;2.20;0.70;;;16.00;59.00;;;;;;5024131;28;20478;-76
2021/05/30 01:10:28;;;;;;;2.20;0.80;;;16.10;58.80;;;;;;5027334;28;20049;-69
2021/05/30 01:12:58;;;;;;;3.67;0.82;;;16.10;59.40;;;;;;5029775;28;20112;-71
2021/05/30 01:15:31;;;;;;;1.85;1.10;;;16.30;59.00;;;;;;5027701;28;20036;-68
2021/05/30 01:17:58;;;;;;;4.47;1.05;;;16.20;58.70;;;;;;5014640;28;20037;-62
2021/05/30 01:20:26;;;;;;;4.32;1.60;;;16.30;58.60;;;;;;5029799;28;20037;-63
2021/05/30 01:22:53;;;;;;;1.95;0.55;;;16.60;58.20;;;;;;5026089;28;20056;-71
2021/05/30 01:25:23;;;;;;;5.50;3.00;;;16.80;57.10;;;;;;5031553;28;20113;-71
2021/05/30 01:27:52;;;;;;;1.83;0.80;;;16.70;57.10;;;;;;5037167;28;20112;-63
2021/05/30 01:30:21;;;;;;;4.68;0.68;;;16.70;57.20;;;;;;5029202;28;20018;-71
2021/05/30 01:32:49;;;;;;;3.83;0.85;;;16.50;57.20;;;;;;5029243;28;20131;-71
2021/05/30 01:35:18;;;;;;;2.25;0.60;;;16.50;57.10;;;;;;5028768;28;20029;-73
2021/05/30 01:37:45;;;;;;;4.78;0.63;;;16.40;57.40;;;;;;5029755;28;20498;-72
2021/05/30 01:40:12;;;;;;;2.65;0.63;;;16.50;57.60;;;;;;5028920;28;20681;-63
2021/05/30 01:42:39;;;;;;;1.75;0.50;;;16.60;57.30;;;;;;5029136;28;20095;-71
2021/05/30 01:45:07;;;;;;;4.13;0.88;;;16.70;57.70;;;;;;5029687;28;20033;-71
2021/05/30 01:47:42;;;;;;;1.92;0.45;;;16.50;57.40;;;;;;5028055;28;20027;-62
2021/05/30 01:50:12;;;;;;;0.95;0.50;;;16.40;58.10;;;;;;5029047;28;20203;-64
2021/05/30 01:52:40;;;;;;;3.33;1.02;;;16.30;56.90;;;;;;5029354;28;20049;-63
2021/05/30 01:55:09;;;;;;;2.40;0.60;;;16.30;58.20;;;;;;5026228;28;20469;-71
2021/05/30 01:57:45;;;;;;;2.50;0.75;;;16.30;58.10;;;;;;5028860;28;20021;-71
2021/05/30 02:00:13;;;;;;;2.47;0.70;;;16.20;58.30;;;;;;5027814;28;20075;-72
2021/05/30 02:02:40;;;;;;;5.05;0.98;;;16.30;58.20;;;;;;5028915;28;20049;-72
2021/05/30 02:05:07;;;;;;;0.93;0.55;;;16.30;58.20;;;;;;5028734;28;20037;-72
2021/05/30 02:07:35;;;;;;;2.33;0.82;;;16.40;58.80;;;;;;5028705;28;20029;-63
2021/05/30 02:10:04;;;;;;;2.83;0.65;;;16.50;60.40;;;;;;5028575;28;20037;-71
2021/05/30 02:12:33;;;;;;;4.68;0.70;;;16.40;61.40;;;;;;5024419;28;20065;-62
2021/05/30 02:15:00;;;;;;;1.85;0.65;;;16.50;61.70;;;;;;5028351;28;20025;-71
2021/05/30 02:17:27;;;;;;;3.50;0.80;;;16.60;60.80;;;;;;5028410;28;20018;-63
2021/05/30 02:19:55;;;;;;;5.15;0.80;;;16.40;60.10;;;;;;5028014;28;20040;-63
2021/05/30 02:22:22;;;;;;;4.35;0.88;;;16.40;61.60;;;;;;5029634;28;20025;-70
2021/05/30 02:24:48;;;;;;;2.53;0.65;;;16.50;60.50;;;;;;5028622;28;20022;-71
2021/05/30 02:27:15;;;;;;;1.58;0.77;;;16.50;59.30;;;;;;5028745;28;20029;-63
2021/05/30 02:29:44;;;;;;;1.48;0.70;;;16.60;59.90;;;;;;5028116;28;20889;-63
2021/05/30 02:32:13;;;;;;;3.75;0.80;;;16.80;59.40;;;;;;5025608;28;20021;-71
2021/05/30 02:34:43;;;;;;;2.08;0.77;;;17.00;58.30;;;;;;5025906;28;20026;-63
2021/05/30 02:37:16;;;;;;;3.17;0.82;;;17.10;58.50;;;;;;5028545;28;20037;-63
2021/05/30 02:39:45;;;;;;;3.60;0.73;;;17.20;58.40;;;;;;5028466;28;20064;-70
2021/05/30 02:42:12;;;;;;;2.97;0.80;;;17.20;57.80;;;;;;5025561;28;20020;-63
2021/05/30 02:44:40;;;;;;;3.15;1.05;;;17.20;58.10;;;;;;5027683;28;20034;-64
2021/05/30 02:47:08;;;;;;;4.20;1.05;;;17.20;58.10;;;;;;5027910;28;20026;-64
2021/05/30 02:49:35;;;;;;;1.48;0.65;;;17.10;58.50;;;;;;4330089;28;10000644;-63
2021/05/30 02:52:03;;;;;;;5.05;1.00;;;17.20;58.90;;;;;;5026240;28;20126;-72
2021/05/30 02:54:30;;;;;;;2.00;0.90;;;17.20;58.10;;;;;;5024642;28;20072;-72
2021/05/30 02:56:57;;;;;;;2.42;0.80;;;17.20;58.80;;;;;;5026708;28;20347;-71
2021/05/30 02:59:24;;;;;;;2.10;0.90;;;17.40;58.50;;;;;;5026400;28;20486;-62
2021/05/30 03:01:51;;;;;;;3.53;1.90;;;17.60;58.30;;;;;;5024701;28;20029;-73
2021/05/30 03:04:18;;;;;;;3.05;1.00;;;17.60;58.80;;;;;;5025969;28;20348;-71
2021/05/30 03:06:45;;;;;;;3.40;1.00;;;17.50;58.50;;;;;;5026840;28;20048;-72
2021/05/30 03:09:12;;;;;;;3.10;1.27;;;17.30;59.90;;;;;;5027036;28;20017;-72
2021/05/30 03:11:39;;;;;;;6.65;2.28;;;17.40;60.00;;;;;;5025038;28;20116;-63
2021/05/30 03:14:06;;;;;;;0.85;0.52;;;17.30;59.30;;;;;;5026305;28;20025;-72
2021/05/30 03:16:33;;;;;;;4.25;1.02;;;17.20;59.40;;;;;;5023219;28;20029;-71
2021/05/30 03:19:01;;;;;;;1.95;0.70;;;17.00;59.90;;;;;;5024464;28;20435;-73
2021/05/30 03:21:28;;;;;;;1.65;1.05;;;16.80;61.30;;;;;;5025055;28;20341;-63
2021/05/30 03:23:55;;;;;;;2.00;0.80;;;16.60;62.20;;;;;;5024457;28;20410;-64
2021/05/30 03:26:22;;;;;;;2.25;1.00;;;16.70;62.20;;;;;;5024898;28;20063;-72
2021/05/30 03:28:51;;;;;;;5.93;1.42;;;16.80;61.70;;;;;;5024034;28;20103;-71
2021/05/30 03:31:18;;;;;;;5.50;0.80;;;16.80;61.90;;;;;;5024119;28;20062;-71
2021/05/30 03:33:45;;;;;;;1.95;0.93;;;16.70;61.90;;;;;;5024855;28;20076;-73
2021/05/30 03:36:17;;;;;;;3.90;1.02;;;16.70;61.50;;;;;;5024181;28;20518;-72
2021/05/30 03:38:44;;;;;;;3.33;0.70;;;16.70;61.90;;;;;;5025343;28;20075;-74
2021/05/30 03:41:14;;;;;;;3.08;0.93;;;16.50;62.30;;;;;;5024394;28;20552;-64
2021/05/30 03:43:44;;;;;;;1.10;0.60;;;16.40;62.70;;;;;;5023984;28;20026;-73
2021/05/30 03:46:11;;;;;;;3.17;0.60;;;16.40;62.90;;;;;;5023641;28;20032;-72
2021/05/30 03:48:38;;;;;;;4.55;0.90;;;16.50;62.20;;;;;;5023963;28;20021;-63
2021/05/30 03:51:05;;;;;;;4.85;1.13;;;16.70;62.60;;;;;;5024146;28;20417;-71
2021/05/30 03:53:32;;;;;;;3.05;1.10;;;16.90;60.80;;;;;;5022796;28;20489;-63
2021/05/30 03:55:59;;;;;;;4.13;1.70;;;17.10;59.50;;;;;;5023364;28;20445;-70
2021/05/30 03:58:26;;;;;;;3.28;1.00;;;17.10;60.10;;;;;;5024568;28;20045;-62
2021/05/30 04:00:52;;;;;;;1.23;0.70;;;17.20;58.90;;;;;;5023040;28;20454;-73
2021/05/30 04:03:19;;;;;;;2.90;0.80;;;17.40;57.30;;;;;;5024190;28;20045;-73
2021/05/30 04:05:46;;;;;;;1.27;0.77;;;17.60;58.10;;;;;;5023704;28;20077;-64
2021/05/30 04:08:13;;;;;;;1.92;0.75;;;17.60;57.70;;;;;;5023338;28;20431;-73
2021/05/30 04:10:44;;;;;;;1.80;0.60;;;17.40;57.90;;;;;;5024531;28;20021;-63
2021/05/30 04:13:11;;;;;;;1.70;0.80;;;17.30;58.00;;;;;;5017405;28;20125;-63
2021/05/30 04:32:37;;;;;;;10.15;1.58;;;17.70;57.40;;;;;;4982961;28;20103;-70
2021/05/30 04:35:05;;;;;;;2.88;0.73;;;18.00;56.40;;;;;;5004937;28;20367;-67
2021/05/30 04:37:32;;;;;;;4.80;2.15;;;17.70;56.00;;;;;;4655561;28;9999768;-69
2021/05/30 04:39:59;;;;;;;3.08;1.15;;;17.30;56.70;;;;;;5000990;28;20041;-63
2021/05/30 04:42:26;;;;;;;1.27;0.93;;;17.00;57.30;;;;;;4997136;28;20052;-71
2021/05/30 04:44:53;;;;;;;3.95;1.92;;;16.80;58.10;;;;;;5001807;28;20029;-71
2021/05/30 04:47:20;;;;;;;2.38;1.00;;;16.90;58.30;;;;;;5002504;28;20100;-71
2021/05/30 04:49:47;;;;;;;5.70;1.13;;;17.00;57.60;;;;;;4997569;28;20126;-61
2021/05/30 04:52:14;;;;;;;4.22;0.90;;;17.00;57.90;;;;;;5000920;28;20026;-62
2021/05/30 04:54:41;;;;;;;4.72;1.92;;;17.00;57.60;;;;;;4997759;28;20113;-69
2021/05/30 04:57:08;;;;;;;2.85;1.10;;;17.00;58.10;;;;;;4996764;28;20026;-62
2021/05/30 04:59:36;;;;;;;6.45;2.28;;;17.00;58.30;;;;;;4997607;28;20549;-70
2021/05/30 05:02:03;;;;;;;7.63;2.33;;;16.90;58.20;;;;;;5002070;28;20029;-63
2021/05/30 05:04:30;;;;;;;4.43;1.10;;;16.80;58.50;;;;;;5000711;28;20014;-63
2021/05/30 05:06:57;;;;;;;3.92;1.13;;;16.70;58.40;;;;;;4996884;28;20018;-70
2021/05/30 05:09:23;;;;;;;2.40;0.60;;;16.60;59.20;;;;;;5002374;28;20014;-70
2021/05/30 05:11:50;;;;;;;4.25;0.88;;;16.70;58.90;;;;;;4997075;28;20395;-69
2021/05/30 05:14:17;;;;;;;2.85;0.80;;;16.70;58.80;;;;;;4996569;28;20022;-62
2021/05/30 05:16:44;;;;;;;2.55;0.90;;;16.70;59.00;;;;;;4998171;28;20497;-61
2021/05/30 05:19:11;;;;;;;3.38;0.73;;;16.70;59.10;;;;;;5003651;28;20314;-70
2021/05/30 05:21:38;;;;;;;2.53;0.80;;;16.60;59.00;;;;;;4996867;28;20018;-70
2021/05/30 05:24:06;;;;;;;1.95;0.80;;;16.60;59.10;;;;;;5000476;28;20018;-62
2021/05/30 05:26:33;;;;;;;2.95;0.77;;;16.60;60.20;;;;;;5003373;28;20120;-62
2021/05/30 05:29:00;;;;;;;2.95;0.68;;;16.60;59.80;;;;;;4997545;28;20033;-62
2021/05/30 05:31:27;;;;;;;5.63;1.17;;;16.40;60.20;;;;;;4997476;28;20026;-62
2021/05/30 05:33:54;;;;;;;3.58;1.00;;;16.40;60.90;;;;;;5000415;28;20042;-71
2021/05/30 05:36:22;;;;;;;1.85;1.10;;;16.50;60.40;;;;;;5001768;28;20028;-70
2021/05/30 05:38:49;;;;;;;2.28;0.60;;;16.40;59.90;;;;;;5001146;28;20030;-62
2021/05/30 05:41:16;;;;;;;3.05;0.90;;;16.30;60.60;;;;;;5001515;28;20026;-70
2021/05/30 05:43:43;;;;;;;1.83;0.57;;;16.40;61.20;;;;;;4998907;28;20022;-70
2021/05/30 05:46:10;;;;;;;3.20;0.70;;;16.30;61.30;;;;;;4995348;28;20046;-70
2021/05/30 05:48:36;;;;;;;1.00;0.65;;;16.30;61.50;;;;;;4996644;28;20113;-62
2021/05/30 05:51:04;;;;;;;1.38;0.73;;;16.30;61.40;;;;;;5004302;28;20036;-62
2021/05/30 05:53:31;;;;;;;3.25;1.40;;;16.30;61.80;;;;;;4995973;28;20018;-62
2021/05/30 05:55:58;;;;;;;3.13;1.02;;;16.20;62.40;;;;;;4996659;28;20536;-70
2021/05/30 05:58:25;;;;;;;3.50;0.75;;;16.20;61.70;;;;;;5006745;28;20010;-62
2021/05/30 06:00:52;;;;;;;3.45;0.90;;;16.20;62.20;;;;;;4997751;28;20401;-62
2021/05/30 06:03:19;;;;;;;9.07;1.88;;;16.20;62.20;;;;;;4994228;28;20375;-62
2021/05/30 06:05:46;;;;;;;3.10;1.10;;;16.10;62.40;;;;;;4998538;28;20093;-70
2021/05/30 06:08:13;;;;;;;9.98;1.40;;;16.10;62.20;;;;;;4998757;28;20522;-62
2021/05/30 06:10:40;;;;;;;3.78;1.10;;;16.00;62.70;;;;;;5007959;28;20018;-63
2021/05/30 06:13:10;;;;;;;2.35;0.80;;;15.90;63.40;;;;;;5007700;28;20069;-70
2021/05/30 06:15:44;;;;;;;4.18;0.80;;;15.90;63.30;;;;;;5009205;28;20306;-63
2021/05/30 06:18:16;;;;;;;4.40;2.42;;;15.90;63.00;;;;;;5007969;28;20049;-63
2021/05/30 06:20:46;;;;;;;5.30;0.85;;;15.80;64.20;;;;;;5008849;28;20044;-71
2021/05/30 06:23:14;;;;;;;4.40;1.95;;;15.80;63.90;;;;;;5006921;28;20038;-71
2021/05/30 06:25:45;;;;;;;2.75;0.82;;;15.90;63.50;;;;;;5013736;28;20037;-71
2021/05/30 06:28:12;;;;;;;1.55;0.68;;;15.90;63.10;;;;;;5007670;28;20198;-63
2021/05/30 06:30:41;;;;;;;2.03;1.25;;;16.10;62.40;;;;;;5007990;28;20051;-71
2021/05/30 06:33:10;;;;;;;2.50;0.90;;;16.20;61.80;;;;;;5006764;28;20041;-63
2021/05/30 06:35:42;;;;;;;2.22;1.02;;;16.30;61.80;;;;;;5003392;28;20490;-70
2021/05/30 06:38:11;;;;;;;1.60;0.63;;;16.20;62.50;;;;;;5008256;28;20054;-71
2021/05/30 06:40:38;;;;;;;3.90;1.10;;;16.00;63.50;;;;;;5006096;28;20068;-61
2021/05/30 06:43:06;;;;;;;1.77;0.80;;;15.90;63.70;;;;;;5006998;28;20080;-69
2021/05/30 06:45:33;;;;;;;5.13;1.30;;;15.80;64.40;;;;;;5007315;28;20022;-63
2021/05/30 06:48:01;;;;;;;4.80;1.15;;;15.70;63.90;;;;;;5007042;28;20473;-62
2021/05/30 06:50:28;;;;;;;2.13;0.98;;;15.50;64.50;;;;;;5006890;28;20054;-70
2021/05/30 06:52:55;;;;;;;2.17;1.10;;;15.50;65.30;;;;;;5013648;28;20120;-63
2021/05/30 06:55:23;;;;;;;4.32;0.80;;;15.50;64.80;;;;;;5003007;28;20029;-61
2021/05/30 06:57:51;;;;;;;3.28;1.27;;;15.40;65.50;;;;;;5002817;28;20360;-70
2021/05/30 07:00:19;;;;;;;5.05;1.30;;;15.40;65.40;;;;;;5007104;28;20024;-62
2021/05/30 07:02:47;;;;;;;2.45;0.75;;;15.30;67.20;;;;;;5006677;28;20494;-63
2021/05/30 07:05:16;;;;;;;1.55;0.80;;;15.30;66.00;;;;;;5007134;28;20418;-71
2021/05/30 07:07:43;;;;;;;4.75;1.40;;;15.20;66.10;;;;;;5006554;28;20056;-62
2021/05/30 07:10:11;;;;;;;2.75;1.40;;;15.30;66.60;;;;;;5007077;28;20549;-71
2021/05/30 07:12:39;;;;;;;3.08;1.10;;;15.20;66.70;;;;;;5005871;28;20034;-71
2021/05/30 07:15:06;;;;;;;5.43;1.23;;;15.10;66.50;;;;;;5006568;28;20080;-71
2021/05/30 07:17:37;;;;;;;4.82;1.33;;;15.10;66.30;;;;;;5006333;28;20053;-71
2021/05/30 07:20:05;;;;;;;3.90;1.10;;;15.00;66.80;;;;;;4996951;28;20036;-63
2021/05/30 07:22:32;;;;;;;4.93;2.92;;;15.00;66.50;;;;;;5003975;28;20025;-63
2021/05/30 07:24:59;;;;;;;11.80;6.75;;;15.00;66.60;;;;;;5004643;28;20038;-71
2021/05/30 07:27:26;;;;;;;7.43;2.92;;;15.00;67.50;;;;;;5005923;28;20026;-71
2021/05/30 07:29:53;;;;;;;8.18;2.17;;;14.90;67.50;;;;;;5003701;28;20152;-71
2021/05/30 07:32:20;;;;;;;12.82;2.58;;;14.80;67.80;;;;;;5005085;28;20594;-63
2021/05/30 07:34:48;;;;;;;8.55;1.58;;;14.80;67.90;;;;;;5005015;28;20451;-71
2021/05/30 07:37:15;;;;;;;5.55;1.70;;;14.80;68.00;;;;;;5004662;28;20370;-63
2021/05/30 07:39:42;;;;;;;8.77;1.40;;;14.80;68.50;;;;;;5004609;28;20022;-71
2021/05/30 07:42:09;;;;;;;5.53;1.08;;;14.80;68.10;;;;;;5005761;28;20034;-62
2021/05/30 07:44:37;;;;;;;3.95;1.30;;;14.80;68.10;;;;;;5003356;28;20054;-71
2021/05/30 07:47:07;;;;;;;5.05;1.20;;;14.70;68.60;;;;;;5004627;28;20033;-71
2021/05/30 07:49:34;;;;;;;2.75;0.93;;;14.70;68.50;;;;;;5003673;28;20057;-71
2021/05/30 07:52:02;;;;;;;2.75;1.00;;;14.60;68.50;;;;;;5011375;28;20069;-62
2021/05/30 07:54:29;;;;;;;5.05;1.23;;;14.60;68.60;;;;;;5003500;28;20018;-71
2021/05/30 07:56:56;;;;;;;3.78;1.27;;;14.60;68.30;;;;;;5005117;28;20076;-71
2021/05/30 07:59:24;;;;;;;4.82;1.35;;;14.60;68.60;;;;;;5004544;28;20017;-62
2021/05/30 08:01:52;;;;;;;3.53;0.90;;;14.50;68.40;;;;;;5004192;28;20080;-71
2021/05/30 08:04:19;;;;;;;5.22;1.33;;;14.50;68.80;;;;;;5004707;28;20080;-71
2021/05/30 08:06:46;;;;;;;3.67;1.10;;;14.50;70.10;;;;;;4997202;28;20028;-71
2021/05/30 08:09:13;;;;;;;7.10;1.23;;;14.50;69.00;;;;;;5005236;28;20433;-72
2021/05/30 08:11:40;;;;;;;9.05;5.45;;;14.50;69.70;;;;;;5001541;28;20025;-71
2021/05/30 08:14:09;;;;;;;17.77;8.50;;;14.40;70.00;;;;;;4996283;28;20026;-62
2021/05/30 08:16:37;;;;;;;14.90;7.32;;;14.40;70.30;;;;;;5001538;28;20018;-63
2021/05/30 08:19:04;;;;;;;4.88;3.13;;;14.40;70.40;;;;;;5003656;28;20021;-71
2021/05/30 08:21:31;;;;;;;14.02;8.38;;;14.30;70.50;;;;;;4998463;28;20033;-63
2021/05/30 08:23:58;;;;;;;7.53;3.58;;;14.40;70.30;;;;;;5004461;28;20454;-71
2021/05/30 08:26:25;;;;;;;7.60;3.72;;;14.30;69.10;;;;;;5004071;28;20018;-63
2021/05/30 08:28:52;;;;;;;4.30;1.48;;;14.30;69.60;;;;;;5004777;28;20478;-71
2021/05/30 08:31:19;;;;;;;3.75;1.27;;;14.20;69.90;;;;;;5004379;28;20026;-70
2021/05/30 08:33:46;;;;;;;6.95;4.10;;;14.20;69.30;;;;;;5010805;28;20052;-71
2021/05/30 08:36:14;;;;;;;4.78;1.50;;;14.20;69.90;;;;;;5014535;28;20022;-62
2021/05/30 08:38:43;;;;;;;6.68;2.08;;;14.20;70.30;;;;;;5008762;28;20132;-71
2021/05/30 08:41:11;;;;;;;7.28;1.58;;;14.10;70.20;;;;;;4996515;28;20505;-73
2021/05/30 08:43:38;;;;;;;5.55;1.33;;;14.10;70.20;;;;;;5007136;28;20072;-70
2021/05/30 08:46:05;;;;;;;8.65;1.75;;;14.00;69.60;;;;;;5003982;28;20030;-64
2021/05/30 08:48:32;;;;;;;19.60;9.88;;;13.90;70.10;;;;;;4997396;28;20107;-70
2021/05/30 08:51:06;;;;;;;4.20;1.70;;;13.80;70.70;;;;;;4996591;28;20025;-72
2021/05/30 08:53:38;;;;;;;5.47;1.98;;;13.80;71.00;;;;;;4999396;28;20563;-69
2021/05/30 08:56:06;;;;;;;5.63;2.15;;;13.70;71.70;;;;;;5002026;28;20021;-70
2021/05/30 08:58:52;;;;;;;6.28;2.38;;;13.70;71.10;;;;;;5003653;28;20029;-67
2021/05/30 09:01:26;;;;;;;3.70;1.23;;;13.70;71.90;;;;;;5002929;28;20018;-68
2021/05/30 09:04:07;;;;;;;19.58;10.15;;;13.80;70.40;;;;;;5000404;28;20034;-69
2021/05/30 09:06:35;;;;;;;7.03;2.70;;;13.80;70.70;;;;;;5000631;28;20109;-65
2021/05/30 09:09:08;;;;;;;4.57;1.40;;;13.80;70.70;;;;;;5001482;28;20391;-71
2021/05/30 09:11:53;;;;;;;6.05;1.77;;;13.90;69.80;;;;;;4995111;28;20438;-69
2021/05/30 09:14:29;;;;;;;5.03;2.00;;;13.90;69.70;;;;;;5000653;28;20026;-70
2021/05/30 09:16:56;;;;;;;5.22;2.10;;;13.90;69.70;;;;;;5001841;28;20601;-70
2021/05/30 09:19:45;;;;;;;8.10;1.75;;;13.80;70.50;;;;;;4995715;28;20017;-70
2021/05/30 09:22:22;;;;;;;9.38;1.50;;;13.80;70.40;;;;;;4998330;28;20113;-70
2021/05/30 09:24:52;;;;;;;1.73;1.02;;;13.80;70.60;;;;;;5002601;28;20033;-67
2021/05/30 09:27:24;;;;;;;4.50;1.75;;;13.80;70.20;;;;;;5001603;28;20034;-67
2021/05/30 09:30:14;;;;;;;4.75;1.67;;;13.90;71.00;;;;;;5007403;28;20119;-68
2021/05/30 09:33:23;;;;;;;5.25;2.13;;;13.80;70.70;;;;;;5009768;28;20497;-68
2021/05/30 09:35:54;;;;;;;4.80;1.50;;;13.80;71.60;;;;;;5004262;28;20053;-69
2021/05/30 09:38:28;;;;;;;4.65;1.38;;;13.70;71.10;;;;;;5000187;28;20109;-67
2021/05/30 09:41:13;;;;;;;11.43;2.03;;;13.70;71.90;;;;;;4996628;28;20025;-68
2021/05/30 09:43:51;;;;;;;8.05;1.95;;;13.60;72.20;;;;;;4997532;28;20076;-66
2021/05/30 09:46:23;;;;;;;5.10;1.73;;;13.60;72.40;;;;;;5020100;28;20027;-68
2021/05/30 09:48:50;;;;;;;2.90;1.20;;;13.50;72.10;;;;;;4997542;28;20026;-67
2021/05/30 09:51:39;;;;;;;5.50;1.55;;;13.60;72.10;;;;;;4994485;28;20038;-68
2021/05/30 09:54:14;;;;;;;4.25;1.20;;;13.60;72.10;;;;;;5003139;28;20274;-65
2021/05/30 09:56:47;;;;;;;4.60;1.40;;;13.60;71.40;;;;;;4997675;28;20438;-67
2021/05/30 09:59:19;;;;;;;3.65;1.42;;;13.60;72.00;;;;;;5000477;28;20026;-65
2021/05/30 10:01:59;;;;;;;2.67;1.73;;;13.60;71.90;;;;;;5019672;28;20306;-68
2021/05/30 10:04:35;;;;;;;4.45;1.20;;;13.60;71.50;;;;;;4997408;28;20041;-66
2021/05/30 10:07:04;;;;;;;3.17;1.55;;;13.70;71.90;;;;;;4999305;28;20029;-66
2021/05/30 10:09:32;;;;;;;4.53;1.50;;;13.60;71.40;;;;;;4998564;28;20161;-65
2021/05/30 10:12:04;;;;;;;3.40;1.13;;;13.60;71.50;;;;;;5007461;28;20038;-70
2021/05/30 10:14:31;;;;;;;3.63;1.30;;;13.60;71.40;;;;;;5002122;28;20356;-71
2021/05/30 10:16:59;;;;;;;3.95;1.10;;;13.50;71.90;;;;;;5003826;28;20038;-65
2021/05/30 10:19:43;;;;;;;3.53;1.42;;;13.50;71.10;;;;;;4998215;28;20640;-67
2021/05/30 10:22:11;;;;;;;5.43;1.17;;;13.50;71.10;;;;;;4995600;28;20049;-67
2021/05/30 10:24:43;;;;;;;6.43;1.20;;;13.40;72.10;;;;;;4997781;28;20032;-66
2021/05/30 10:27:24;;;;;;;3.22;0.93;;;13.40;71.30;;;;;;4996908;28;20041;-73
2021/05/30 10:32:38;;;;;;;4.97;1.33;;;13.30;71.90;;;;;;4999366;28;20451;-66
2021/05/30 10:35:25;;;;;;;4.85;1.20;;;13.30;71.20;;;;;;5002992;28;20041;-70
2021/05/30 10:37:54;;;;;;;3.08;1.52;;;13.30;72.10;;;;;;5002220;28;20324;-69
2021/05/30 10:40:23;;;;;;;3.72;1.60;;;13.30;72.00;;;;;;5002277;28;20021;-68
2021/05/30 10:43:15;;;;;;;3.00;1.25;;;13.30;71.60;;;;;;5001460;28;20026;-77
2021/05/30 10:45:45;;;;;;;3.03;1.05;;;13.30;71.70;;;;;;5003669;28;20037;-73
2021/05/30 10:48:17;;;;;;;4.90;1.25;;;13.20;71.80;;;;;;5001700;28;20567;-74
2021/05/30 10:50:58;;;;;;;3.78;1.25;;;13.20;72.20;;;;;;5002470;28;20026;-68
2021/05/30 10:53:34;;;;;;;2.78;0.95;;;13.20;72.10;;;;;;5003648;28;20092;-68
2021/05/30 10:56:22;;;;;;;4.28;1.58;;;13.10;72.50;;;;;;5003635;28;20080;-68
2021/05/30 10:59:14;;;;;;;1.20;0.98;;;13.10;71.80;;;;;;4999800;28;20025;-74
2021/05/30 11:01:50;;;;;;;4.07;1.30;;;13.10;73.00;;;;;;4998392;28;20044;-69
2021/05/30 11:04:27;;;;;;;;;;;;;;;;;;;;;
2021/05/30 11:07:02;;;;;;;3.40;1.40;;;13.00;72.60;;;;;;5003877;28;20069;-68
2021/05/30 11:10:01;;;;;;;3.22;1.13;;;13.00;72.80;;;;;;5006346;28;20037;-68
2021/05/30 11:12:35;;;;;;;3.00;1.33;;;12.90;73.50;;;;;;5000381;28;20101;-63
2021/05/30 11:15:10;;;;;;;3.15;1.10;;;12.90;73.20;;;;;;5000461;28;20341;-66
2021/05/30 11:17:45;;;;;;;4.97;1.23;;;12.70;73.90;;;;;;5004217;28;20030;-74
2021/05/30 11:20:18;;;;;;;3.85;1.52;;;12.70;74.00;;;;;;5005048;28;20023;-68
2021/05/30 11:22:53;;;;;;;3.70;1.58;;;12.80;73.50;;;;;;5003958;28;20327;-68
2021/05/30 11:25:26;;;;;;;1.75;1.00;;;12.80;73.60;;;;;;5005817;28;20025;-68
2021/05/30 11:28:04;;;;;;;2.47;1.20;;;12.60;74.50;;;;;;5003443;28;20053;-68
2021/05/30 11:30:58;;;;;;;2.42;1.40;;;12.60;74.20;;;;;;4998989;28;20025;-74
2021/05/30 11:33:25;;;;;;;4.13;1.02;;;12.50;73.90;;;;;;5005263;28;20039;-66
2021/05/30 11:36:01;;;;;;;2.40;1.50;;;12.40;74.60;;;;;;5004637;28;20443;-67
2021/05/30 11:38:52;;;;;;;4.75;1.33;;;12.30;75.10;;;;;;5007836;28;20064;-67
2021/05/30 11:41:28;;;;;;;2.13;0.90;;;12.10;75.70;;;;;;5003932;28;20092;-65
2021/05/30 11:43:59;;;;;;;2.47;1.27;;;12.00;76.40;;;;;;5003545;28;20018;-67
2021/05/30 11:46:28;;;;;;;3.10;1.27;;;11.90;76.70;;;;;;5000365;28;20310;-65
2021/05/30 11:49:19;;;;;;;4.00;1.30;;;11.80;76.80;;;;;;5010833;28;20032;-68
2021/05/30 11:51:50;;;;;;;4.72;1.30;;;11.70;77.40;;;;;;5000971;28;20076;-75
2021/05/30 11:54:19;;;;;;;3.53;1.45;;;11.70;77.40;;;;;;5003093;28;20025;-67
2021/05/30 11:56:48;;;;;;;8.07;1.27;;;11.60;77.80;;;;;;5004388;28;20124;-69
2021/05/30 11:59:15;;;;;;;4.13;1.15;;;11.50;77.90;;;;;;5011589;28;20037;-69
2021/05/30 12:01:50;;;;;;;1.48;1.20;;;11.50;78.20;;;;;;5005043;28;20037;-74
2021/05/30 12:04:23;;;;;;;1.35;1.10;;;11.30;78.90;;;;;;4998425;28;20371;-66
2021/05/30 12:06:51;;;;;;;2.65;1.00;;;11.10;79.30;;;;;;5006338;28;20489;-74
2021/05/30 12:09:18;;;;;;;2.05;0.90;;;11.00;80.40;;;;;;5004256;28;20370;-74
2021/05/30 12:11:45;;;;;;;3.67;1.40;;;10.80;81.00;;;;;;5004370;28;20022;-66
2021/05/30 12:14:13;;;;;;;2.10;0.98;;;10.80;81.10;;;;;;4997170;28;20030;-67
2021/05/30 12:16:40;;;;;;;6.15;1.38;;;10.70;81.70;;;;;;5004604;28;20021;-74
2021/05/30 12:19:08;;;;;;;2.55;1.00;;;10.70;81.30;;;;;;5004250;28;20025;-71
2021/05/30 12:21:47;;;;;;;1.67;1.00;;;10.70;80.90;;;;;;5003887;28;20340;-67
2021/05/30 12:24:17;;;;;;;2.53;1.23;;;10.80;80.40;;;;;;5002991;28;20083;-68
2021/05/30 12:26:48;;;;;;;2.55;1.13;;;10.80;80.50;;;;;;5010775;28;20378;-75
2021/05/30 12:29:17;;;;;;;2.15;1.20;;;10.70;81.00;;;;;;5004921;28;20030;-68
2021/05/30 12:31:47;;;;;;;2.47;1.40;;;10.50;81.30;;;;;;5004833;28;20033;-66
2021/05/30 12:34:14;;;;;;;3.47;1.45;;;10.40;82.40;;;;;;5009300;28;20118;-68
2021/05/30 12:36:45;;;;;;;2.60;1.63;;;10.40;82.40;;;;;;5005845;28;20025;-70
2021/05/30 12:39:27;;;;;;;4.38;2.15;;;10.30;82.80;;;;;;5004467;28;20034;-68
2021/05/30 12:42:02;;;;;;;2.72;1.48;;;10.20;82.90;;;;;;5003408;28;20080;-69
2021/05/30 12:44:53;;;;;;;2.92;1.50;;;10.20;83.20;;;;;;5004428;28;20030;-70
2021/05/30 12:47:32;;;;;;;3.58;1.63;;;10.10;83.40;;;;;;5000695;28;20116;-66
2021/05/30 12:50:01;;;;;;;2.25;1.60;;;10.00;83.60;;;;;;5002299;28;20124;-68
2021/05/30 12:52:49;;;;;;;3.83;2.08;;;9.90;84.00;;;;;;4997531;28;20117;-69
2021/05/30 12:55:18;;;;;;;2.88;1.60;;;9.80;84.80;;;;;;5002276;28;20100;-67
2021/05/30 12:57:49;;;;;;;3.75;1.50;;;9.70;86.00;;;;;;5004918;28;20040;-75
2021/05/30 13:00:28;;;;;;;2.05;1.38;;;9.60;85.90;;;;;;5004036;28;20487;-68
2021/05/30 13:03:00;;;;;;;4.60;1.90;;;9.60;86.30;;;;;;5004213;28;20025;-68
2021/05/30 13:05:33;;;;;;;4.80;1.77;;;9.50;86.20;;;;;;5003520;28;20085;-75
2021/05/30 13:07:59;;;;;;;;;;;9.50;86.40;;;;;;4996783;28;20374;-75
2021/05/30 13:10:26;;;;;;;4.43;1.90;;;9.40;86.60;;;;;;5003839;28;19955;-75
2021/05/30 13:12:53;;;;;;;3.35;1.70;;;9.40;86.80;;;;;;5004764;28;20096;-75
2021/05/30 13:15:27;;;;;;;4.43;2.22;;;9.30;87.20;;;;;;5007519;28;20030;-65
2021/05/30 13:17:57;;;;;;;2.50;1.80;;;9.40;87.00;;;;;;5003270;28;20027;-65
2021/05/30 13:20:29;;;;;;;2.70;1.70;;;9.30;86.70;;;;;;5006321;28;20018;-68
2021/05/30 13:23:05;;;;;;;3.53;1.63;;;9.30;87.10;;;;;;5007601;28;20525;-65